createdAt,value
2023-02-24T00:01:25.019Z,99492.53
2023-02-24T00:03:30.895Z,99489.89
2023-02-24T00:05:36.319Z,99488.8
2023-02-24T00:07:41.592Z,99481.8
2023-02-24T00:09:46.826Z,99480.14
2023-02-24T00:11:52.257Z,99479.78
2023-02-24T00:13:57.482Z,99474.77
2023-02-24T00:16:03.027Z,99471.22
2023-02-24T00:18:08.695Z,99464.23
2023-02-24T00:20:14.253Z,99461.49
2023-02-24T00:22:19.706Z,99459.5
2023-02-24T00:24:25.164Z,99454.19
2023-02-24T00:26:33.560Z,99453.01
2023-02-24T00:28:38.857Z,99446.19
2023-02-24T00:30:44.631Z,99438.8
2023-02-24T00:32:50.471Z,99442.01
2023-02-24T00:34:55.886Z,99434.33
2023-02-24T00:37:01.298Z,99434.48
2023-02-24T00:39:06.882Z,99432.11
2023-02-24T00:41:12.236Z,99429.56
2023-02-24T00:43:17.427Z,99428.86
2023-02-24T00:45:22.894Z,99429.48
2023-02-24T00:47:28.674Z,99423.33
2023-02-24T00:49:34.194Z,99421.64
2023-02-24T00:51:39.483Z,99417.56
2023-02-24T00:53:45.084Z,99415.39
2023-02-24T00:55:50.435Z,99414.13
2023-02-24T00:57:55.706Z,99412.27
2023-02-24T01:00:00.959Z,99410.75
2023-02-24T01:02:07.013Z,99409.1
2023-02-24T01:04:12.898Z,99404.85
2023-02-24T01:06:18.324Z,99395.55
2023-02-24T01:08:24.085Z,99392.9
2023-02-24T01:10:29.612Z,99395.38
2023-02-24T01:12:34.900Z,99387.41
2023-02-24T01:14:40.502Z,99387.22
2023-02-24T01:16:46.213Z,99385.59
2023-02-24T01:18:51.873Z,99382.66
2023-02-24T01:20:57.096Z,99380.7
2023-02-24T01:23:02.760Z,99380.97
2023-02-24T01:25:11.050Z,99373.73
2023-02-24T01:27:16.547Z,99372.28
2023-02-24T01:29:22.459Z,99365.75
2023-02-24T01:31:28.335Z,99364
2023-02-24T01:33:33.964Z,99355.47
2023-02-24T01:35:39.544Z,99352.92
2023-02-24T01:37:44.834Z,99350.69
2023-02-24T01:39:50.258Z,99347.03
2023-02-24T01:41:55.424Z,99343.17
2023-02-24T01:44:00.797Z,99335.64
2023-02-24T01:46:08.930Z,99337.78
2023-02-24T01:48:14.570Z,99331.69
2023-02-24T01:50:20.047Z,99330.13
2023-02-24T01:52:28.317Z,99325.5
2023-02-24T01:54:34.096Z,99331.57
2023-02-24T01:56:39.618Z,99328.08
2023-02-24T01:58:45.138Z,99326.31
2023-02-24T02:00:50.426Z,99325.69
2023-02-24T02:02:56.180Z,99325.23
2023-02-24T02:05:02.354Z,99320.7
2023-02-24T02:07:07.639Z,99320.09
2023-02-24T02:09:13.458Z,99320.89
2023-02-24T02:11:19.135Z,99317.31
2023-02-24T02:13:26.489Z,99310.43
2023-02-24T02:15:32.243Z,99310.28
2023-02-24T02:17:37.480Z,99307.83
2023-02-24T02:19:42.983Z,99304.81
2023-02-24T02:21:48.322Z,99306.42
2023-02-24T02:23:53.615Z,99300.06
2023-02-24T02:25:59.137Z,99300.81
2023-02-24T02:28:04.358Z,99298.56
2023-02-24T02:30:09.778Z,99294.89
2023-02-24T02:32:15.688Z,99289
2023-02-24T02:34:21.479Z,99283.16
2023-02-24T02:36:26.719Z,99282.11
2023-02-24T02:38:31.681Z,99288.65
2023-02-24T02:40:36.867Z,99285.07
2023-02-24T02:42:42.200Z,99290.32
2023-02-24T02:44:47.579Z,99283.8
2023-02-24T02:46:52.672Z,99284.22
2023-02-24T02:48:59.564Z,99281.94
2023-02-24T02:51:04.966Z,99281.61
2023-02-24T02:53:10.179Z,99276.2
2023-02-24T02:55:15.390Z,99275.44
2023-02-24T02:57:20.602Z,99273.48
2023-02-24T02:59:25.835Z,99274.55
2023-02-24T03:01:31.199Z,99276.44
2023-02-24T03:03:36.879Z,99272.42
2023-02-24T03:05:42.196Z,99266.94
2023-02-24T03:07:47.598Z,99267.32
2023-02-24T03:12:15.875Z,99258.77
2023-02-24T03:14:21.218Z,99260.85
2023-02-24T03:16:26.871Z,99258.72
2023-02-24T03:18:32.441Z,99262.17
2023-02-24T03:20:37.853Z,99260.44
2023-02-24T03:22:43.178Z,99255.95
2023-02-24T03:24:48.551Z,99249.13
2023-02-24T03:26:53.948Z,99250.89
2023-02-24T03:29:00.973Z,99244.37
2023-02-24T03:31:06.465Z,99244.62
2023-02-24T03:33:12.264Z,99244.95
2023-02-24T03:35:17.789Z,99243.08
2023-02-24T03:37:23.203Z,99239.38
2023-02-24T03:39:28.319Z,99238.73
2023-02-24T03:41:33.839Z,99238.31
2023-02-24T03:43:42.531Z,99234.21
2023-02-24T03:45:48.074Z,99239.39
2023-02-24T03:47:54.022Z,99237.01
2023-02-24T03:49:59.443Z,99234.64
2023-02-24T03:52:04.387Z,99238.09
2023-02-24T03:54:09.469Z,99236.2
2023-02-24T03:56:14.546Z,99239.56
2023-02-24T03:58:19.966Z,99237.1
2023-02-24T04:00:25.124Z,99231.37
2023-02-24T04:02:30.500Z,99228.34
2023-02-24T04:04:36.212Z,99224.55
2023-02-24T04:06:42.319Z,99227.34
2023-02-24T04:08:47.600Z,99230.06
2023-02-24T04:10:53.093Z,99226.38
2023-02-24T04:12:58.854Z,99226.62
2023-02-24T04:15:04.178Z,99221.77
2023-02-24T04:17:09.612Z,99218.27
2023-02-24T04:19:15.896Z,99212.34
2023-02-24T04:21:21.944Z,99209.39
2023-02-24T04:23:27.432Z,99206.93
2023-02-24T04:25:32.841Z,99201.89
2023-02-24T04:27:38.583Z,99202.38
2023-02-24T04:29:43.925Z,99195.59
2023-02-24T04:31:49.654Z,99193.95
2023-02-24T04:33:56.365Z,99190.91
2023-02-24T04:36:01.565Z,99190.75
2023-02-24T04:38:06.544Z,99193.72
2023-02-24T04:40:12.011Z,99194.52
2023-02-24T04:42:18.775Z,99192.56
2023-02-24T04:44:24.594Z,99193.06
2023-02-24T04:46:30.459Z,99188.08
2023-02-24T04:48:36.253Z,99184.22
2023-02-24T04:50:41.504Z,99178.97
2023-02-24T04:52:46.862Z,99175.04
2023-02-24T04:54:52.248Z,99173.56
2023-02-24T04:57:00.332Z,99171.38
2023-02-24T04:59:05.539Z,99168.75
2023-02-24T05:01:11.103Z,99165.8
2023-02-24T05:03:16.425Z,99159.89
2023-02-24T05:05:21.870Z,99161.2
2023-02-24T05:07:27.379Z,99154.72
2023-02-24T05:09:32.858Z,99154.48
2023-02-24T05:11:38.158Z,99152.67
2023-02-24T05:13:43.229Z,99159.07
2023-02-24T05:15:48.652Z,99153.66
2023-02-24T05:17:54.364Z,99153.02
2023-02-24T05:19:59.742Z,99153.58
2023-02-24T05:22:05.061Z,99150.88
2023-02-24T05:24:10.687Z,99152.52
2023-02-24T05:26:15.935Z,99152.77
2023-02-24T05:28:21.494Z,99147.95
2023-02-24T05:30:26.803Z,99148.34
2023-02-24T05:32:32.734Z,99146.62
2023-02-24T05:34:38.525Z,99148.27
2023-02-24T05:36:43.670Z,99146.78
2023-02-24T05:38:49.595Z,99145.05
2023-02-24T05:40:54.809Z,99143.48
2023-02-24T05:43:00.234Z,99146.7
2023-02-24T05:45:05.658Z,99145.89
2023-02-24T05:47:11.096Z,99139.23
2023-02-24T05:49:16.663Z,99141.53
2023-02-24T05:51:22.710Z,99142.59
2023-02-24T05:53:28.392Z,99139.89
2023-02-24T05:55:34.004Z,99136.77
2023-02-24T05:57:39.155Z,99136.85
2023-02-24T05:59:44.670Z,99136.92
2023-02-24T06:01:50.238Z,99129.72
2023-02-24T06:03:55.717Z,99134.47
2023-02-24T06:06:02.727Z,99130.52
2023-02-24T06:08:08.076Z,99125.67
2023-02-24T06:10:13.561Z,99125.19
2023-02-24T06:12:18.936Z,99125.18
2023-02-24T06:14:24.649Z,99124.84
2023-02-24T06:16:30.311Z,99124.36
2023-02-24T06:18:35.991Z,99125.52
2023-02-24T06:20:41.755Z,99129.67
2023-02-24T06:22:47.471Z,99126.8
2023-02-24T06:24:52.851Z,99128.44
2023-02-24T06:26:58.369Z,99122.12
2023-02-24T06:29:03.707Z,99120.98
2023-02-24T06:31:09.198Z,99117.86
2023-02-24T06:33:14.742Z,99116.39
2023-02-24T06:35:20.339Z,99119.33
2023-02-24T06:37:26.192Z,99114.97
2023-02-24T06:39:32.104Z,99114.22
2023-02-24T06:41:41.447Z,99115.78
2023-02-24T06:43:47.680Z,99118.09
2023-02-24T06:45:54.122Z,99115.8
2023-02-24T06:48:00.257Z,99115.85
2023-02-24T06:50:06.189Z,99114.38
2023-02-24T06:52:12.062Z,99117.66
2023-02-24T06:54:17.704Z,99109.92
2023-02-24T06:56:23.391Z,99112.31
2023-02-24T06:58:30.598Z,99106.98
2023-02-24T07:00:37.156Z,99105.81
2023-02-24T07:02:44.264Z,99104.75
2023-02-24T07:04:50.322Z,99104.67
2023-02-24T07:06:56.496Z,99101.28
2023-02-24T07:09:03.002Z,99100.2
2023-02-24T07:11:09.624Z,99099.88
2023-02-24T07:13:15.638Z,99100.55
2023-02-24T07:15:21.204Z,99097.66
2023-02-24T07:17:26.623Z,99092.54
2023-02-24T07:19:32.101Z,99089.09
2023-02-24T07:21:38.090Z,99088.12
2023-02-24T07:23:43.641Z,99084.11
2023-02-24T07:25:49.272Z,99082.35
2023-02-24T07:27:56.230Z,99084.48
2023-02-24T07:30:01.971Z,99083.93
2023-02-24T07:32:07.699Z,99083.82
2023-02-24T07:34:14.578Z,99077.27
2023-02-24T07:36:20.587Z,99077
2023-02-24T07:38:26.063Z,99078.73
2023-02-24T07:40:31.235Z,99074.13
2023-02-24T07:42:36.788Z,99071.73
2023-02-24T07:44:43.255Z,99071.8
2023-02-24T07:46:49.512Z,99070.88
2023-02-24T07:48:54.904Z,99067.84
2023-02-24T07:51:01.151Z,99065.82
2023-02-24T07:53:07.483Z,99066.53
2023-02-24T07:55:13.311Z,99063
2023-02-24T07:57:19.126Z,99063.56
2023-02-24T07:59:25.360Z,99059.88
2023-02-24T08:01:31.491Z,99060.69
2023-02-24T08:03:38.184Z,99057.59
2023-02-24T08:05:43.975Z,99054.36
2023-02-24T08:07:50.022Z,99053.66
2023-02-24T08:09:56.193Z,99050.23
2023-02-24T08:12:02.581Z,99049.05
2023-02-24T08:14:09.247Z,99048.52
2023-02-24T08:16:15.445Z,99047.05
2023-02-24T08:18:21.657Z,99047.98
2023-02-24T08:20:27.950Z,99048.68
2023-02-24T08:22:34.096Z,99042.48
2023-02-24T08:24:40.781Z,99039.97
2023-02-24T08:26:47.075Z,99037.05
2023-02-24T08:28:53.513Z,99038.26
2023-02-24T08:31:01.654Z,99034.25
2023-02-24T08:33:08.493Z,99024.44
2023-02-24T08:35:14.722Z,99026.83
2023-02-24T08:37:21.076Z,99020.89
2023-02-24T08:39:27.192Z,99016.66
2023-02-24T08:41:33.228Z,99021.97
2023-02-24T08:43:39.842Z,99016.25
2023-02-24T08:45:46.326Z,99013.93
2023-02-24T08:47:52.479Z,99013.91
2023-02-24T08:49:58.635Z,99005.5
2023-02-24T08:52:04.446Z,99006.73
2023-02-24T08:54:11.603Z,99002.59
2023-02-24T08:56:17.913Z,99002.44
2023-02-24T08:58:24.969Z,98996.58
2023-02-24T09:00:31.203Z,98996.01
2023-02-24T09:02:37.762Z,98991.55
2023-02-24T09:04:44.118Z,98989.91
2023-02-24T09:06:50.364Z,98989.81
2023-02-24T09:09:14.728Z,98987
2023-02-24T09:11:22.504Z,98984.41
2023-02-24T09:13:28.800Z,98985.82
2023-02-24T09:15:34.489Z,98983.02
2023-02-24T09:17:40.902Z,98982.2
2023-02-24T09:19:47.164Z,98974.75
2023-02-24T09:21:53.469Z,98972.28
2023-02-24T09:23:59.209Z,98969.82
2023-02-24T09:26:05.432Z,98969.14
2023-02-24T09:28:11.720Z,98970.69
2023-02-24T09:30:18.418Z,98964.16
2023-02-24T09:32:25.198Z,98960.07
2023-02-24T09:34:32.227Z,98958.67
2023-02-24T09:36:38.549Z,98955.45
2023-02-24T09:38:47.154Z,98953.17
2023-02-24T09:40:52.952Z,98949.35
2023-02-24T09:42:58.594Z,98951.31
2023-02-24T09:45:04.879Z,98943.9
2023-02-24T09:47:10.726Z,98945.34
2023-02-24T09:49:16.339Z,98946.96
2023-02-24T09:51:22.601Z,98943.31
2023-02-24T09:53:28.662Z,98944.14
2023-02-24T09:55:34.440Z,98938.05
2023-02-24T09:57:39.942Z,98936.89
2023-02-24T09:59:48.125Z,98935.82
2023-02-24T10:01:54.705Z,98936.64
2023-02-24T10:04:08.746Z,98929.71
2023-02-24T10:06:25.673Z,98932.3
2023-02-24T10:08:31.244Z,98928.38
2023-02-24T10:10:36.505Z,98927.73
2023-02-24T10:12:42.250Z,98924.26
2023-02-24T10:14:53.059Z,98926.88
2023-02-24T10:17:04.981Z,98923.18
2023-02-24T10:19:10.643Z,98918.84
2023-02-24T10:21:16.682Z,98919.02
2023-02-24T10:23:23.500Z,98916.34
2023-02-24T10:25:29.090Z,98915.3
2023-02-24T10:27:34.688Z,98915.73
2023-02-24T10:29:40.948Z,98908.42
2023-02-24T10:31:47.796Z,98904.84
2023-02-24T10:33:53.734Z,98906.84
2023-02-24T10:35:59.286Z,98903.97
2023-02-24T10:38:04.607Z,98900.69
2023-02-24T10:40:10.542Z,98897.45
2023-02-24T10:42:16.243Z,98887.92
2023-02-24T10:44:22.633Z,98890.46
2023-02-24T10:46:43.211Z,98880.66
2023-02-24T10:48:50.539Z,98884.33
2023-02-24T10:50:58.039Z,98882.78
2023-02-24T10:53:04.632Z,98881.41
2023-02-24T10:55:10.784Z,98877.36
2023-02-24T10:57:17.388Z,98878.31
2023-02-24T10:59:23.245Z,98873.72
2023-02-24T11:01:30.228Z,98876.14
2023-02-24T11:03:36.744Z,98879.63
2023-02-24T11:05:42.832Z,98875.05
2023-02-24T11:07:49.143Z,98877.32
2023-02-24T11:09:55.528Z,98872.7
2023-02-24T11:12:02.349Z,98873.78
2023-02-24T11:14:08.736Z,98864.84
2023-02-24T11:16:16.675Z,98867.97
2023-02-24T11:18:23.233Z,98860.64
2023-02-24T11:20:49.256Z,98860.61
2023-02-24T11:22:56.548Z,98858.33
2023-02-24T11:25:03.544Z,98853.31
2023-02-24T11:27:12.834Z,98850.55
2023-02-24T11:29:19.526Z,98844.16
2023-02-24T11:31:27.077Z,98833.54
2023-02-24T11:33:34.082Z,98836.31
2023-02-24T11:35:40.227Z,98832.11
2023-02-24T11:37:46.656Z,98829.48
2023-02-24T11:39:53.832Z,98827.55
2023-02-24T11:42:00.326Z,98823.47
2023-02-24T11:44:07.074Z,98821.69
2023-02-24T11:46:17.111Z,98818.19
2023-02-24T11:48:23.665Z,98818.33
2023-02-24T11:50:30.162Z,98818.2
2023-02-24T11:52:37.351Z,98816.38
2023-02-24T11:54:44.752Z,98814.38
2023-02-24T11:56:50.932Z,98814.78
2023-02-24T11:58:56.649Z,98810.64
2023-02-24T12:01:02.519Z,98809.95
2023-02-24T12:03:08.449Z,98804.49
2023-02-24T12:05:15.007Z,98803.98
2023-02-24T12:07:21.228Z,98797.81
2023-02-24T12:09:29.217Z,98792.55
2023-02-24T12:11:35.321Z,98795.75
2023-02-24T12:13:41.424Z,98795.25
2023-02-24T12:15:48.429Z,98792.2
2023-02-24T12:17:54.774Z,98787.91
2023-02-24T12:20:00.594Z,98784.25
2023-02-24T12:22:07.474Z,98785.78
2023-02-24T12:24:14.234Z,98779.11
2023-02-24T12:26:20.548Z,98770.39
2023-02-24T12:28:26.562Z,98766.14
2023-02-24T12:30:32.953Z,98762.36
2023-02-24T12:32:43.248Z,98759.85
2023-02-24T12:34:50.596Z,98745.69
2023-02-24T12:36:57.038Z,98746.13
2023-02-24T12:39:02.842Z,98741.52
2023-02-24T12:41:09.246Z,98744.45
2023-02-24T12:43:16.104Z,98740.33
2023-02-24T12:45:22.467Z,98741.58
2023-02-24T12:47:28.477Z,98746.84
2023-02-24T12:49:34.594Z,98747.68
2023-02-24T12:51:41.122Z,98741.54
2023-02-24T12:53:47.552Z,98742.81
2023-02-24T12:55:54.226Z,98739.89
2023-02-24T12:58:00.870Z,98737.25
2023-02-24T13:00:07.704Z,98732.38
2023-02-24T13:02:14.618Z,98728.11
2023-02-24T13:04:21.148Z,98721.05
2023-02-24T13:06:27.736Z,98719.9
2023-02-24T13:08:34.104Z,98722.13
2023-02-24T13:10:40.419Z,98722.08
2023-02-24T13:12:47.154Z,98714.84
2023-02-24T13:14:53.719Z,98712.92
2023-02-24T13:16:59.943Z,98707.53
2023-02-24T13:19:06.199Z,98703.2
2023-02-24T13:21:13.477Z,98689.39
2023-02-24T13:23:25.997Z,98690.2
2023-02-24T13:25:32.536Z,98682.56
2023-02-24T13:27:38.649Z,98677.11
2023-02-24T13:29:45.265Z,98674.47
2023-02-24T13:31:51.889Z,98678.66
2023-02-24T13:33:58.604Z,98672.13
2023-02-24T13:36:05.013Z,98665.73
2023-02-24T13:38:11.589Z,98664.3
2023-02-24T13:40:18.157Z,98661.72
2023-02-24T13:42:24.698Z,98658.08
2023-02-24T13:44:31.478Z,98656.92
2023-02-24T13:46:38.221Z,98663.34
2023-02-24T13:48:44.478Z,98658.64
2023-02-24T13:50:51.195Z,98649.16
2023-02-24T13:53:00.521Z,98646.91
2023-02-24T13:55:07.229Z,98641.86
2023-02-24T13:57:16.015Z,98640.5
2023-02-24T13:59:22.856Z,98641.69
2023-02-24T14:01:29.209Z,98634.89
2023-02-24T14:03:36.661Z,98637.39
2023-02-24T14:05:43.120Z,98639.52
2023-02-24T14:07:49.481Z,98638.56
2023-02-24T14:09:55.937Z,98635.72
2023-02-24T14:12:03.206Z,98633.59
2023-02-24T14:14:10.398Z,98628.92
2023-02-24T14:16:17.230Z,98629.2
2023-02-24T14:18:24.886Z,98624.44
2023-02-24T14:20:30.997Z,98623.66
2023-02-24T14:22:37.588Z,98624.83
2023-02-24T14:24:44.213Z,98624.64
2023-02-24T14:26:50.556Z,98624.84
2023-02-24T14:28:58.288Z,98624.61
2023-02-24T14:31:04.944Z,98624.94
2023-02-24T14:33:13.407Z,98622.19
2023-02-24T14:35:20.820Z,98622.77
2023-02-24T14:37:27.190Z,98626.34
2023-02-24T14:39:33.306Z,98629.41
2023-02-24T14:41:40.149Z,98626.23
2023-02-24T14:43:46.812Z,98623.53
2023-02-24T14:45:54.152Z,98618.15
2023-02-24T14:48:00.401Z,98613.83
2023-02-24T14:50:06.537Z,98612.58
2023-02-24T14:52:16.861Z,98613.66
2023-02-24T14:54:23.456Z,98622.16
2023-02-24T14:56:30.664Z,98608.69
2023-02-24T14:58:37.505Z,98611.45
2023-02-24T15:00:45.032Z,98602.08
2023-02-24T15:02:51.773Z,98597.88
2023-02-24T15:04:59.379Z,98595.67
2023-02-24T15:07:08.671Z,98590.73
2023-02-24T15:09:15.156Z,98585
2023-02-24T15:11:21.951Z,98573.56
2023-02-24T15:13:29.093Z,98575.57
2023-02-24T15:15:35.763Z,98576.83
2023-02-24T15:17:42.704Z,98575.19
2023-02-24T15:19:49.686Z,98575
2023-02-24T15:21:56.514Z,98576.09
2023-02-24T15:24:03.371Z,98574.51
2023-02-24T15:26:10.258Z,98573.3
2023-02-24T15:28:18.088Z,98567.69
2023-02-24T15:30:25.517Z,98565.75
2023-02-24T15:32:36.461Z,98560.7
2023-02-24T15:34:44.171Z,98561.64
2023-02-24T15:36:53.312Z,98569.91
2023-02-24T15:39:01.221Z,98574.56
2023-02-24T15:41:08.209Z,98572.67
2023-02-24T15:43:15.349Z,98571.16
2023-02-24T15:45:21.510Z,98582.16
2023-02-24T15:47:28.211Z,98577.94
2023-02-24T15:49:36.669Z,98577.16
2023-02-24T15:51:44.378Z,98578.84
2023-02-24T15:53:51.269Z,98576.72
2023-02-24T15:55:58.647Z,98566.13
2023-02-24T15:58:07.563Z,98567.45
2023-02-24T16:00:15.437Z,98565
2023-02-24T16:02:25.537Z,98561.1
2023-02-24T16:04:34.278Z,98561.98
2023-02-24T16:06:42.819Z,98564.46
2023-02-24T16:08:54.815Z,98565.56
2023-02-24T16:11:03.693Z,98561.22
2023-02-24T16:13:13.059Z,98558.98
2023-02-24T16:15:21.357Z,98559.57
2023-02-24T16:17:29.591Z,98549.26
2023-02-24T16:19:36.668Z,98541.8
2023-02-24T16:21:44.545Z,98540.7
2023-02-24T16:23:56.226Z,98540.71
2023-02-24T16:26:02.890Z,98541.05
2023-02-24T16:28:10.258Z,98539.53
2023-02-24T16:30:21.375Z,98543.15
2023-02-24T16:32:33.065Z,98542.42
2023-02-24T16:34:41.877Z,98538.01
2023-02-24T16:36:49.276Z,98544.92
2023-02-24T16:38:55.894Z,98547.13
2023-02-24T16:41:02.084Z,98551.17
2023-02-24T16:43:12.239Z,98548.3
2023-02-24T16:45:18.785Z,98550.88
2023-02-24T16:47:25.074Z,98545.3
2023-02-24T16:49:32.166Z,98551.64
2023-02-24T16:51:38.841Z,98555.3
2023-02-24T16:53:52.584Z,98551.02
2023-02-24T16:56:00.888Z,98550.88
2023-02-24T16:58:08.273Z,98548.2
2023-02-24T17:00:15.580Z,98545.44
2023-02-24T17:02:22.102Z,98549.16
2023-02-24T17:04:31.458Z,98549.5
2023-02-24T17:06:38.354Z,98534.71
2023-02-24T17:08:50.494Z,98527.82
2023-02-24T17:11:00.410Z,98519.71
2023-02-24T17:13:07.834Z,98516.68
2023-02-24T17:15:15.839Z,98522.6
2023-02-24T17:17:23.276Z,98525.16
2023-02-24T17:19:32.156Z,98523.84
2023-02-24T17:21:43.402Z,98513.23
2023-02-24T17:23:51.878Z,98513.27
2023-02-24T17:25:59.485Z,98512.4
2023-02-24T17:28:08.229Z,98518.81
2023-02-24T17:30:16.154Z,98518.88
2023-02-24T17:32:23.745Z,98517.13
2023-02-24T17:34:39.975Z,98511.02
2023-02-24T17:36:46.994Z,98508.39
2023-02-24T17:38:56.105Z,98509.45
2023-02-24T17:41:03.993Z,98504.45
2023-02-24T17:43:10.892Z,98503.48
2023-02-24T17:45:17.621Z,98500.05
2023-02-24T17:47:26.713Z,98499.7
2023-02-24T17:49:38.019Z,98504.58
2023-02-24T17:51:45.324Z,98506.92
2023-02-24T17:53:52.580Z,98508.42
2023-02-24T17:56:04.336Z,98502.86
2023-02-24T17:58:15.967Z,98508.79
2023-02-24T18:00:26.196Z,98498.61
2023-02-24T18:02:34.868Z,98492.73
2023-02-24T18:04:44.502Z,98497.28
2023-02-24T18:06:52.501Z,98495.62
2023-02-24T18:09:01.130Z,98495.02
2023-02-24T18:11:09.052Z,98491.91
2023-02-24T18:13:20.586Z,98490.13
2023-02-24T18:15:28.924Z,98481.38
2023-02-24T18:17:38.787Z,98479.61
2023-02-24T18:19:46.821Z,98478.64
2023-02-24T18:21:53.458Z,98468.05
2023-02-24T18:24:01.539Z,98465.42
2023-02-24T18:26:13.783Z,98460.43
2023-02-24T18:28:21.759Z,98455.01
2023-02-24T18:30:30.611Z,98451.59
2023-02-24T18:32:39.115Z,98460.01
2023-02-24T18:34:47.378Z,98461.73
2023-02-24T18:36:55.051Z,98454.52
2023-02-24T18:39:05.725Z,98453.8
2023-02-24T18:41:15.482Z,98456.65
2023-02-24T18:43:23.686Z,98453.53
2023-02-24T18:45:37.543Z,98450.43
2023-02-24T18:47:46.913Z,98447.2
2023-02-24T18:49:56.098Z,98443.88
2023-02-24T18:52:06.759Z,98444.81
2023-02-24T18:54:16.282Z,98446.73
2023-02-24T18:56:28.858Z,98448.38
2023-02-24T18:58:37.718Z,98448.05
2023-02-24T19:00:54.891Z,98450.45
2023-02-24T19:03:12.917Z,98447.02
2023-02-24T19:05:24.199Z,98440.91
2023-02-24T19:07:45.218Z,98432.36
2023-02-24T19:09:54.114Z,98427.5
2023-02-24T19:12:03.607Z,98426.45
2023-02-24T19:14:19.550Z,98418.86
2023-02-24T19:16:30.449Z,98421.08
2023-02-24T19:18:40.916Z,98417.88
2023-02-24T19:20:48.920Z,98416.17
2023-02-24T19:22:56.054Z,98417.16
2023-02-24T19:25:05.737Z,98415.64
2023-02-24T19:27:14.341Z,98408.7
2023-02-24T19:29:31.885Z,98400.43
2023-02-24T19:31:45.657Z,98387.75
2023-02-24T19:33:55.635Z,98382.28
2023-02-24T19:36:03.712Z,98381.8
2023-02-24T19:38:15.384Z,98381.89
2023-02-24T19:40:28.155Z,98378.23
2023-02-24T19:42:36.095Z,98373.52
2023-02-24T19:44:48.468Z,98375.9
2023-02-24T19:46:58.655Z,98376
2023-02-24T19:49:07.799Z,98376.48
2023-02-24T19:51:18.286Z,98375.17
2023-02-24T19:53:28.900Z,98381.42
2023-02-24T19:55:38.937Z,98373.73
2023-02-24T19:57:49.895Z,98377.53
2023-02-24T19:59:59.806Z,98372.95
2023-02-24T20:02:14.939Z,98381.47
2023-02-24T20:04:29.240Z,98381.9
2023-02-24T20:06:40.649Z,98386.31
2023-02-24T20:08:56.765Z,98390.33
2023-02-24T20:11:11.468Z,98393.31
2023-02-24T20:13:20.632Z,98388.66
2023-02-24T20:15:35.291Z,98393.87
2023-02-24T20:17:44.695Z,98388.88
2023-02-24T20:19:55.957Z,98384.31
2023-02-24T20:22:09.144Z,98375.33
2023-02-24T20:24:18.902Z,98374.84
2023-02-24T20:26:27.958Z,98375.13
2023-02-24T20:28:48.253Z,98373.69
2023-02-24T20:30:56.495Z,98366.44
2023-02-24T20:33:06.939Z,98354.88
2023-02-24T20:35:19.717Z,98360.36
2023-02-24T20:37:34.272Z,98358.83
2023-02-24T20:39:50.846Z,98356.44
2023-02-24T20:42:07.927Z,98349.05
2023-02-24T20:44:20.464Z,98348.84
2023-02-24T20:46:34.016Z,98348.61
2023-02-24T20:48:54.178Z,98342.44
2023-02-24T20:51:02.492Z,98337.3
2023-02-24T20:53:09.994Z,98335.23
2023-02-24T20:55:21.284Z,98328.91
2023-02-24T20:57:32.166Z,98323.92
2023-02-24T20:59:45.503Z,98314
2023-02-24T21:02:10.636Z,98311.13
2023-02-24T21:04:19.091Z,98321.42
2023-02-24T21:06:30.211Z,98321.91
2023-02-24T21:08:39.966Z,98328.78
2023-02-24T21:10:49.161Z,98332.79
2023-02-24T21:12:56.781Z,98323.78
2023-02-24T21:15:08.153Z,98323.72
2023-02-24T21:17:15.679Z,98311.77
2023-02-24T21:19:22.702Z,98302.3
2023-02-24T21:21:30.102Z,98299.42
2023-02-24T21:23:36.873Z,98299.42
2023-02-24T21:25:47.761Z,98294.76
2023-02-24T21:27:56.346Z,98291.66
2023-02-24T21:30:03.682Z,98293.69
2023-02-24T21:32:11.190Z,98304.39
2023-02-24T21:34:19.160Z,98307.3
2023-02-24T21:36:26.544Z,98302.7
2023-02-24T21:38:32.981Z,98294.91
2023-02-24T21:40:40.820Z,98287.66
2023-02-24T21:42:47.727Z,98282.83
2023-02-24T21:44:54.844Z,98276.02
2023-02-24T21:47:00.949Z,98268.92
2023-02-24T21:49:09.860Z,98269.64
2023-02-24T21:51:16.685Z,98268.22
2023-02-24T21:53:24.825Z,98270.97
2023-02-24T21:55:32.396Z,98268.81
2023-02-24T21:57:41.547Z,98269.01
2023-02-24T21:59:49.696Z,98270.59
2023-02-24T22:01:57.325Z,98267.38
2023-02-24T22:04:05.308Z,98265.78
2023-02-24T22:06:11.891Z,98255.44
2023-02-24T22:08:17.624Z,98250.84
2023-02-24T22:10:23.556Z,98253.2
2023-02-24T22:12:29.899Z,98246.23
2023-02-24T22:14:35.958Z,98245.17
2023-02-24T22:16:42.355Z,98237.12
2023-02-24T22:18:48.751Z,98237.45
2023-02-24T22:20:54.860Z,98231.45
2023-02-24T22:23:01.094Z,98228.22
2023-02-24T22:25:07.174Z,98225.56
2023-02-24T22:27:13.593Z,98217.39
2023-02-24T22:29:19.931Z,98223.66
2023-02-24T22:31:25.568Z,98217.31
2023-02-24T22:33:31.399Z,98210.66
2023-02-24T22:35:37.222Z,98206.52
2023-02-24T22:37:42.649Z,98201.2
2023-02-24T22:39:48.140Z,98196.88
2023-02-24T22:41:53.707Z,98191.48
2023-02-24T22:43:59.498Z,98196.81
2023-02-24T22:46:05.036Z,98193.22
2023-02-24T22:48:11.100Z,98194.99
2023-02-24T22:50:17.102Z,98190.78
2023-02-24T22:52:22.588Z,98181.27
2023-02-24T22:54:27.968Z,98170.5
2023-02-24T22:56:33.370Z,98169.36
2023-02-24T22:58:39.706Z,98165.44
2023-02-24T23:00:45.037Z,98162.79
2023-02-24T23:02:51.029Z,98157.55
2023-02-24T23:04:56.437Z,98153.41
2023-02-24T23:07:02.194Z,98149.09
2023-02-24T23:09:08.098Z,98142.23
2023-02-24T23:11:14.020Z,98140.84
2023-02-24T23:13:19.583Z,98131.44
2023-02-24T23:15:24.955Z,98122.34
2023-02-24T23:17:30.319Z,98115.67
2023-02-24T23:19:36.194Z,98117.41
2023-02-24T23:21:41.733Z,98125.34
2023-02-24T23:23:46.909Z,98130.12
2023-02-24T23:25:52.577Z,98123.62
2023-02-24T23:27:58.263Z,98127.23
2023-02-24T23:30:03.834Z,98123.47
2023-02-24T23:32:09.870Z,98114.9
2023-02-24T23:34:15.770Z,98112.35
2023-02-24T23:36:21.846Z,98104.38
2023-02-24T23:38:28.876Z,98096.38
2023-02-24T23:40:50.720Z,98087.14
2023-02-24T23:42:56.485Z,98086.59
2023-02-24T23:45:01.717Z,98082.33
2023-02-24T23:47:07.074Z,98077.2
2023-02-24T23:49:12.505Z,98074.77
2023-02-24T23:51:17.883Z,98073.2
2023-02-24T23:53:23.477Z,98072.06
2023-02-24T23:55:28.982Z,98069.95
2023-02-24T23:57:34.568Z,98070.18
2023-02-24T23:59:40.139Z,98071.42
